Torm Skagen — 3EEZ7 — position and weather

sailwx.info

Track history (hours):
 
Tides and Currents Weather Stations Pressure Air Temp Water Temp Dewpoint Dewpoint Depression Visibility Wind Speed Wind Dir Waves Ship Positions

Torm Skagen

Last reported at 2017-Sep-15 20:04 UTC. Time now 2017-Sep-20 18:26 UTC.
Position N 25°30' W 079°32'.

Length 225 m; beam 32.3 m.

Type: Cargo ship. MMSI: 371976000.

Date/timePositionNaut miles runAvg speedWind from/ knotsBaromVisibWave heightAir tempDewpointWater temp
2017-Sep-15 20:04N 25°30' W 079°32'112.5
2017-Sep-15 20:00N 25°30' W 079°32'612.5
2017-Sep-15 19:30N 25°37' W 079°32'612.4
2017-Sep-15 19:00N 25°43' W 079°32'712.5
2017-Sep-15 18:28N 25°49' W 079°31'612.8
2017-Sep-15 18:00N 25°55' W 079°29'712.7
2017-Sep-15 17:29N 26°01' W 079°26'713.5
2017-Sep-15 16:56N 26°05' W 079°19'614.0
2017-Sep-15 16:28N 26°09' W 079°14'  
2017-Sep-07 02:48N 42°17' W 029°51'2013.0
2017-Sep-07 01:14N 42°24' W 029°25'312.9
2017-Sep-07 01:00N 42°25' W 029°22'713.1
2017-Sep-07 00:31N 42°28' W 029°14'  
Track history (hours):
 
Tides and Currents Weather Stations Pressure Air Temp Water Temp Dewpoint Dewpoint Depression Visibility Wind Speed Wind Dir Waves Ship Positions

Torm Skagen

Last reported at 2017-Sep-15 20:04 UTC. Time now 2017-Sep-20 18:26 UTC.
Position N 25°30' W 079°32'.

Length 225 m; beam 32.3 m.

Type: Cargo ship. MMSI: 371976000.

Date/timePositionNaut miles runAvg speedWind from/ knotsBaromVisibWave heightAir tempDewpointWater temp
2017-Sep-15 20:04N 25°30' W 079°32'112.5
2017-Sep-15 20:00N 25°30' W 079°32'612.5
2017-Sep-15 19:30N 25°37' W 079°32'612.4
2017-Sep-15 19:00N 25°43' W 079°32'712.5
2017-Sep-15 18:28N 25°49' W 079°31'612.8
2017-Sep-15 18:00N 25°55' W 079°29'712.7
2017-Sep-15 17:29N 26°01' W 079°26'713.5
2017-Sep-15 16:56N 26°05' W 079°19'614.0
2017-Sep-15 16:28N 26°09' W 079°14'  
2017-Sep-07 02:48N 42°17' W 029°51'2013.0
2017-Sep-07 01:14N 42°24' W 029°25'312.9
2017-Sep-07 01:00N 42°25' W 029°22'713.1
2017-Sep-07 00:31N 42°28' W 029°14'  

Dump ship's entire track history